Burbank, California
Current Conditions -  °F | °C
As of 8:53 PM on Tuesday 25 Nov 2014 (Local Time) from KBUR Reporting Station
Clear Clear  
Wind Chill: 60°   Ceiling: Unl
Heat Index: 60°   Visibility: 10mi
Dew Point: 21°   Wind: 6mph
Humidity: 22%   Direction: 320°NW
Pressure: 30.29"   Gusts: NA
Location:  34.18°N, 118.3°W
Report Text: KBUR 260453Z 32005KT 10SM CLR 16/M06 A3029 RMK AO2 SLP248 T01561061
Loading
Personal Weather Stations






























Interactive Weather Map New forecast layout! Learn more

10-Day Weather Forecast

Advertisements
Track Severe Weather on mobile